createdAt,value
2022-11-02T05:01:15.765Z,1.60
2022-11-02T05:05:28.427Z,1.35
2022-11-02T05:09:43.576Z,1.55
2022-11-02T05:13:57.425Z,1.50
2022-11-02T05:18:11.629Z,1.55
2022-11-02T05:22:25.637Z,1.65
2022-11-02T05:26:37.865Z,1.50
2022-11-02T05:30:50.544Z,1.30
2022-11-02T05:35:02.757Z,1.48
2022-11-02T05:39:15.366Z,1.65
2022-11-02T05:43:27.253Z,1.60
2022-11-02T05:47:39.434Z,1.27
2022-11-02T05:51:50.974Z,1.35
2022-11-02T05:56:04.573Z,1.40
2022-11-02T06:00:16.348Z,1.50
2022-11-02T06:04:27.882Z,1.55
2022-11-02T06:08:39.795Z,1.40
2022-11-02T06:12:59.033Z,1.45
2022-11-02T06:17:10.540Z,1.45
2022-11-02T06:21:22.053Z,1.60
2022-11-02T06:25:33.589Z,1.50
2022-11-02T06:29:45.112Z,1.40
2022-11-02T06:33:56.619Z,1.63
2022-11-02T06:38:08.111Z,1.90
2022-11-02T06:42:19.609Z,1.58
2022-11-02T06:46:31.151Z,1.50
2022-11-02T06:50:42.740Z,1.60
2022-11-02T06:54:54.474Z,1.92
2022-11-02T06:59:06.126Z,1.58
2022-11-02T07:03:18.500Z,1.63
2022-11-02T07:07:30.062Z,1.65
2022-11-02T07:11:41.633Z,1.92
2022-11-02T07:15:54.346Z,2.03
2022-11-02T07:20:06.577Z,1.65
2022-11-02T07:24:18.090Z,1.98
2022-11-02T07:28:29.601Z,2.40
2022-11-02T07:32:42.245Z,2.17
2022-11-02T07:36:55.618Z,1.60
2022-11-02T07:41:07.136Z,2.10
2022-11-02T07:45:18.632Z,2.00
2022-11-02T07:49:30.180Z,1.85
2022-11-02T07:53:41.804Z,2.22
2022-11-02T07:57:55.301Z,1.80
2022-11-02T08:02:09.390Z,2.20
2022-11-02T08:06:20.924Z,2.25
2022-11-02T08:10:37.511Z,1.80
2022-11-02T08:14:51.574Z,2.03
2022-11-02T08:19:03.127Z,1.80
2022-11-02T08:23:16.848Z,1.77
2022-11-02T08:27:28.334Z,2.20
2022-11-02T08:31:39.957Z,2.13
2022-11-02T08:35:52.176Z,2.17
2022-11-02T08:40:03.938Z,2.20
2022-11-02T08:44:15.484Z,2.20
2022-11-02T08:48:27.570Z,1.50
2022-11-02T08:52:40.694Z,1.75
2022-11-02T08:56:52.522Z,1.73
2022-11-02T09:01:04.272Z,2.50
2022-11-02T09:05:16.148Z,2.03
2022-11-02T09:09:28.118Z,2.03
2022-11-02T09:13:39.889Z,1.70
2022-11-02T09:17:51.537Z,1.90
2022-11-02T09:22:05.785Z,1.90
2022-11-02T09:26:17.581Z,2.40
2022-11-02T09:30:29.797Z,2.63
2022-11-02T09:34:41.498Z,1.77
2022-11-02T09:38:53.358Z,2.10
2022-11-02T09:43:22.795Z,1.60
2022-11-02T09:48:16.140Z,2.08
2022-11-02T09:52:41.338Z,2.38
2022-11-02T09:56:59.775Z,2.17
2022-11-02T10:01:41.407Z,1.73
2022-11-02T10:06:04.027Z,1.83
2022-11-02T10:10:23.004Z,2.60
2022-11-02T10:14:39.375Z,1.65
2022-11-02T10:18:58.160Z,1.50
2022-11-02T10:23:33.172Z,1.50
2022-11-02T10:27:52.329Z,2.00
2022-11-02T10:32:09.022Z,1.52
2022-11-02T10:37:09.935Z,1.48
2022-11-02T10:41:34.205Z,1.80
2022-11-02T10:46:10.982Z,1.45
2022-11-02T10:50:41.338Z,1.83
2022-11-02T10:54:53.324Z,1.52
2022-11-02T10:59:20.417Z,1.80
2022-11-02T11:03:32.092Z,1.50
2022-11-02T11:07:44.772Z,1.88
2022-11-02T11:12:05.801Z,1.95
2022-11-02T11:16:40.075Z,1.60
2022-11-02T11:20:55.986Z,2.10
2022-11-02T11:25:10.545Z,2.00
2022-11-02T11:29:22.937Z,2.45
2022-11-02T11:33:48.396Z,1.42
2022-11-02T11:38:21.548Z,1.73
2022-11-02T11:42:37.370Z,1.55
2022-11-02T11:46:58.955Z,1.52
2022-11-02T11:51:35.275Z,1.33
2022-11-02T11:55:58.567Z,1.42
2022-11-02T12:00:30.412Z,1.70
2022-11-02T12:04:41.966Z,1.92
2022-11-02T12:09:14.249Z,2.25
2022-11-02T12:13:55.553Z,1.75
2022-11-02T12:18:28.572Z,1.45
2022-11-02T12:23:14.728Z,1.40
2022-11-02T12:28:09.144Z,1.30
2022-11-02T12:32:52.978Z,1.40
2022-11-02T12:37:45.230Z,1.27
2022-11-02T12:42:11.731Z,1.27
2022-11-02T12:46:47.719Z,1.23
2022-11-02T12:51:12.368Z,1.23
2022-11-02T12:55:38.157Z,1.45
2022-11-02T12:59:54.790Z,1.25
2022-11-02T13:04:12.310Z,1.40
2022-11-02T13:08:44.146Z,2.15
2022-11-02T13:12:59.763Z,1.27
2022-11-02T13:17:20.578Z,1.30
2022-11-02T13:21:44.081Z,1.13
2022-11-02T13:26:02.353Z,0.90
2022-11-02T13:30:16.019Z,1.40
2022-11-02T13:34:36.391Z,1.23
2022-11-02T13:39:00.624Z,1.08
2022-11-02T13:43:39.508Z,1.40
2022-11-02T13:48:04.225Z,1.20
2022-11-02T13:52:34.822Z,1.00
2022-11-02T13:56:51.445Z,1.60
2022-11-02T14:01:06.382Z,1.50
2022-11-02T14:05:29.189Z,1.20
2022-11-02T14:09:44.506Z,1.65
2022-11-02T14:13:58.737Z,1.48
2022-11-02T14:18:15.631Z,1.55
2022-11-02T14:22:31.021Z,1.73
2022-11-02T14:26:56.815Z,1.67
2022-11-02T14:31:17.569Z,1.75
2022-11-02T14:35:49.379Z,1.30
2022-11-02T14:40:22.450Z,1.45
2022-11-02T14:44:51.977Z,1.23
2022-11-02T14:49:05.489Z,1.38
2022-11-02T14:53:25.063Z,1.65
2022-11-02T14:57:50.121Z,1.50
2022-11-02T15:02:15.773Z,1.15
2022-11-02T15:06:29.091Z,0.98
2022-11-02T15:10:43.630Z,1.10
2022-11-02T15:14:58.948Z,1.23
2022-11-02T15:19:38.485Z,1.20
2022-11-02T15:23:55.402Z,1.35
2022-11-02T15:28:20.152Z,2.30
2022-11-02T15:32:39.058Z,2.83
2022-11-02T15:36:50.898Z,2.60
2022-11-02T15:41:05.978Z,1.55
2022-11-02T15:45:49.299Z,1.60
2022-11-02T15:50:13.627Z,2.42
2022-11-02T15:54:45.731Z,2.40
2022-11-02T15:59:16.293Z,2.10
2022-11-02T16:03:27.803Z,2.45
2022-11-02T16:08:09.284Z,2.60
2022-11-02T16:12:24.749Z,3.03
2022-11-02T16:16:47.287Z,6.57
2022-11-02T16:21:02.012Z,8.18
2022-11-02T16:25:26.990Z,6.93
2022-11-02T16:29:40.476Z,4.25
2022-11-02T16:33:54.354Z,3.03
2022-11-02T16:38:06.451Z,3.00
2022-11-02T16:42:23.326Z,4.45
2022-11-02T16:46:47.734Z,8.05
2022-11-02T16:51:22.885Z,5.95
2022-11-02T16:55:44.268Z,4.13
2022-11-02T16:59:59.039Z,5.18
2022-11-02T17:04:22.826Z,3.45
2022-11-02T17:08:36.677Z,4.10
2022-11-02T17:12:49.071Z,3.80
2022-11-02T17:17:02.176Z,4.65
2022-11-02T17:21:13.733Z,28.40
2022-11-02T17:25:31.009Z,26.38
2022-11-02T17:29:42.653Z,25.40
2022-11-02T17:33:56.533Z,13.45
2022-11-02T17:38:09.154Z,11.50
2022-11-02T17:42:39.221Z,10.63
2022-11-02T17:46:50.703Z,9.73
2022-11-02T17:51:02.285Z,8.60
2022-11-02T17:55:16.353Z,4.93
2022-11-02T17:59:27.848Z,4.22
2022-11-02T18:03:39.581Z,3.88
2022-11-02T18:07:51.515Z,3.50
2022-11-02T18:12:03.158Z,5.00
2022-11-02T18:16:14.798Z,6.00
2022-11-02T18:20:27.868Z,6.57
2022-11-02T18:24:39.364Z,8.68
2022-11-02T18:28:50.853Z,7.38
2022-11-02T18:33:03.709Z,8.27
2022-11-02T18:37:15.206Z,9.20
2022-11-02T18:41:34.699Z,5.80
2022-11-02T18:45:46.272Z,6.13
2022-11-02T18:49:57.999Z,10.60
2022-11-02T18:54:09.501Z,8.52
2022-11-02T18:58:21.089Z,11.32
2022-11-02T19:02:33.255Z,12.88
2022-11-02T19:07:03.370Z,10.05
2022-11-02T19:11:14.877Z,10.55
2022-11-02T19:15:26.360Z,9.60
2022-11-02T19:19:40.837Z,9.35
2022-11-02T19:23:52.343Z,9.75
2022-11-02T19:28:04.600Z,13.65
2022-11-02T19:32:17.075Z,12.63
2022-11-02T19:36:28.685Z,12.63
2022-11-02T19:40:40.200Z,18.13
2022-11-02T19:44:51.772Z,18.33
2022-11-02T19:49:03.417Z,15.40
2022-11-02T19:53:14.943Z,13.93
2022-11-02T19:57:32.122Z,14.48
2022-11-02T20:01:46.869Z,13.40
2022-11-02T20:06:07.363Z,12.65
2022-11-02T20:10:18.998Z,12.10
2022-11-02T20:14:30.987Z,11.73
2022-11-02T20:18:44.260Z,11.73
2022-11-02T20:22:55.852Z,11.57
2022-11-02T20:27:08.041Z,11.63
2022-11-02T20:31:26.065Z,11.32
2022-11-02T20:35:38.871Z,12.07
2022-11-02T20:39:50.387Z,10.20
2022-11-02T20:44:01.931Z,10.75
2022-11-02T20:48:13.515Z,11.02
2022-11-02T20:52:25.089Z,12.80
2022-11-02T20:56:36.588Z,13.10
2022-11-02T21:00:48.466Z,14.25
2022-11-02T21:04:59.993Z,32.30
2022-11-02T21:09:12.293Z,24.45
2022-11-02T21:13:42.640Z,18.00
2022-11-02T21:17:54.162Z,17.63
2022-11-02T21:22:05.701Z,15.27
2022-11-02T21:26:17.356Z,10.95
2022-11-02T21:30:30.968Z,8.55
2022-11-02T21:34:42.491Z,9.93
2022-11-02T21:38:54.312Z,9.80
2022-11-02T21:43:06.082Z,10.50
2022-11-02T21:47:17.913Z,15.07
2022-11-02T21:51:29.501Z,11.35
2022-11-02T21:55:41.229Z,6.57
2022-11-02T21:59:52.950Z,6.07
2022-11-02T22:04:31.467Z,5.68
2022-11-02T22:08:43.369Z,6.30
2022-11-02T22:13:13.519Z,6.63
2022-11-02T22:21:57.724Z,5.07
2022-11-02T22:26:10.762Z,4.55
